Portada
METAR-TAF:

METAR-TAF

Aeroports :

Rouen, França

latitud: 49-23N, longitud: 001-11E, altitud: 157 m

Observació

L'informe es va fer fa 44 minuts, a les 13:00 UTC
Vent 4 kt del Oest/Nord-Oest, variant entre Oest/Sud-Oest i Nord
Temperatura 24°C
Humitat 47%
Pressió 1023 hPa
Visibilitat 10 km o més
sense núvols per sota de 1500 mi sense presència de cumulonimbus.

METAR: LFOP 211300Z AUTO 30004KT 250V350 CAVOK 24/12 Q1023 NOSIG

Hora: 15:44 (13:44 UTC)

Pronòstic

L'informe es va fer fa 2 hores i 44 minuts, a les 11:00 UTC
Pronòstic vàlid del 21 a les 12 UTC al 22 a les 12 UTC
Vent 5 kt del Oest/Sud-Oest
Visibilitat 10 km o més
Núvols disperses a una alçada de 3500 ft

TAF: LFOP 211100Z 2112/2212 25005KT 9999 SCT035

Observacions i pronòstics meteorològics de més de 4000 aeroports (METAR i TAF).

Les estacions disponibles són els punts grocs i vermells al mapa.

Posi el ratolí al punt desitjat per veure el nom de l'estació.

Feu clic per veure les observacions i els pronòstics meteorològics.

Per canviar el mapa: feu clic els botons verds amb una creu de color negre per apropar; al botó verd amb un guió per allunyar la imatge; o en les fletxes verdes per a mapes adjacents.


METAR-TAF: